Time;durP1;ratioP1;P1;durP2;ratioP2;P2;SDS_P1;SDS_P2;PMS_P1;PMS_P2;Temp;Humidity;BMP_temperature;BMP_pressure;BME280_temperature;BME280_humidity;BME280_pressure;Samples;Min_cycle;Max_cycle;Signal;HPM_P1;HPM_P2
2023/09/06 00:02:03;;;;;;;10.57;10.27;;;15.50;99.90;;;;;;6288199;22;20201;-79
2023/09/06 00:04:31;;;;;;;10.43;10.13;;;15.50;99.90;;;;;;6287742;22;20204;-79
2023/09/06 00:06:58;;;;;;;10.55;10.25;;;15.40;99.90;;;;;;6287659;22;20285;-78
2023/09/06 00:09:25;;;;;;;10.90;10.60;;;15.40;99.90;;;;;;6287183;22;20280;-79
2023/09/06 00:11:53;;;;;;;10.65;10.35;;;15.30;99.90;;;;;;6287844;22;20284;-79
2023/09/06 00:14:22;;;;;;;10.50;10.20;;;15.20;99.90;;;;;;6287611;22;20201;-79
2023/09/06 00:16:49;;;;;;;10.60;10.30;;;15.20;99.90;;;;;;6287710;22;20236;-79
2023/09/06 00:19:19;;;;;;;10.63;10.32;;;15.10;99.90;;;;;;6287789;22;20193;-78
2023/09/06 00:21:47;;;;;;;10.50;10.20;;;15.10;99.90;;;;;;6287173;22;20256;-79
2023/09/06 00:24:15;;;;;;;10.30;10.00;;;15.10;99.90;;;;;;6287017;22;20219;-80
2023/09/06 00:26:43;;;;;;;10.60;10.30;;;15.10;99.90;;;;;;6287466;22;20193;-79
2023/09/06 00:29:11;;;;;;;10.32;10.02;;;15.00;99.90;;;;;;6286970;22;20197;-79
2023/09/06 00:31:38;;;;;;;10.50;10.20;;;15.00;99.90;;;;;;6287409;22;20304;-78
2023/09/06 00:34:06;;;;;;;10.27;9.98;;;15.00;99.90;;;;;;6286898;22;20228;-79
2023/09/06 00:36:36;;;;;;;10.20;9.90;;;14.90;99.90;;;;;;6286863;22;20194;-78
2023/09/06 00:39:05;;;;;;;10.10;9.80;;;14.90;99.90;;;;;;6286250;22;20249;-79
2023/09/06 00:41:32;;;;;;;10.30;10.00;;;14.90;99.90;;;;;;6286286;22;20341;-79
2023/09/06 00:43:59;;;;;;;10.23;9.93;;;14.80;99.90;;;;;;6286450;22;20197;-79
2023/09/06 00:46:29;;;;;;;10.35;10.05;;;14.80;99.90;;;;;;6286505;22;20257;-78
2023/09/06 00:48:57;;;;;;;10.48;10.18;;;14.80;99.90;;;;;;6286346;22;20280;-79
2023/09/06 00:51:26;;;;;;;10.15;9.85;;;14.70;99.90;;;;;;6286341;22;20197;-79
2023/09/06 00:54:00;;;;;;;10.30;10.00;;;14.70;99.90;;;;;;6285984;22;20201;-78
2023/09/06 00:56:27;;;;;;;10.35;10.05;;;14.70;99.90;;;;;;6286627;22;20189;-77
2023/09/06 00:58:56;;;;;;;10.57;10.27;;;14.60;99.90;;;;;;6286539;22;20269;-79
2023/09/06 01:01:24;;;;;;;10.50;10.20;;;14.60;99.90;;;;;;6286633;22;20283;-77
2023/09/06 01:03:53;;;;;;;10.60;10.30;;;14.50;99.90;;;;;;6285811;22;20213;-79
2023/09/06 01:06:30;;;;;;;10.65;10.35;;;14.50;99.90;;;;;;6293190;22;20197;-78
2023/09/06 01:09:02;;;;;;;10.55;10.25;;;14.50;99.90;;;;;;6294339;22;20277;-78
2023/09/06 01:11:37;;;;;;;10.70;10.40;;;14.50;99.90;;;;;;6288551;22;20236;-79
2023/09/06 01:14:04;;;;;;;10.20;9.90;;;14.40;99.90;;;;;;6287305;22;20200;-78
2023/09/06 01:16:33;;;;;;;10.57;10.27;;;14.40;99.90;;;;;;6287268;22;20194;-78
2023/09/06 01:19:01;;;;;;;10.18;9.88;;;14.30;99.90;;;;;;6291197;22;20276;-77
2023/09/06 01:21:37;;;;;;;10.40;10.10;;;14.30;99.90;;;;;;6305386;22;20196;-77
2023/09/06 01:24:10;;;;;;;10.40;10.10;;;14.30;99.90;;;;;;6304512;22;20212;-78
2023/09/06 01:26:37;;;;;;;10.68;10.38;;;14.20;99.90;;;;;;6305540;22;20185;-77
2023/09/06 01:29:06;;;;;;;10.30;10.00;;;14.20;99.90;;;;;;6299357;22;20197;-78
2023/09/06 01:31:36;;;;;;;10.60;10.30;;;14.20;99.90;;;;;;6288560;22;20196;-78
2023/09/06 01:34:03;;;;;;;10.40;10.10;;;14.10;99.90;;;;;;6288891;22;20288;-78
2023/09/06 01:36:32;;;;;;;10.32;10.02;;;14.10;99.90;;;;;;6296374;22;20204;-79
2023/09/06 01:39:01;;;;;;;10.30;10.00;;;14.10;99.90;;;;;;6289992;22;20273;-79
2023/09/06 01:41:32;;;;;;;10.23;9.93;;;14.10;99.90;;;;;;6290127;22;20213;-78
2023/09/06 01:44:00;;;;;;;10.60;10.30;;;14.00;99.90;;;;;;6288899;22;20277;-78
2023/09/06 01:46:29;;;;;;;10.30;10.00;;;14.00;99.90;;;;;;6289156;22;20194;-79
2023/09/06 01:48:59;;;;;;;10.32;10.02;;;14.00;99.90;;;;;;6289232;22;20280;-79
2023/09/06 01:51:28;;;;;;;10.38;10.07;;;13.90;99.90;;;;;;6288909;22;20288;-79
2023/09/06 01:53:54;;;;;;;10.50;10.20;;;13.90;99.90;;;;;;6287783;22;20202;-78
2023/09/06 01:56:21;;;;;;;10.52;10.23;;;13.80;99.90;;;;;;6289032;22;20272;-78
2023/09/06 01:58:51;;;;;;;10.27;9.97;;;13.80;99.90;;;;;;6289408;22;20276;-78
2023/09/06 02:01:21;;;;;;;10.05;9.75;;;13.80;99.90;;;;;;6288997;22;20194;-78
2023/09/06 02:03:49;;;;;;;10.00;9.70;;;13.70;99.90;;;;;;6287039;22;20289;-78
2023/09/06 02:06:16;;;;;;;10.10;9.80;;;13.70;99.90;;;;;;6287097;22;20193;-79
2023/09/06 02:08:43;;;;;;;10.03;9.73;;;13.60;99.90;;;;;;6286645;22;20204;-78
2023/09/06 02:11:11;;;;;;;10.20;9.90;;;13.60;99.90;;;;;;6286871;22;20197;-78
2023/09/06 02:13:39;;;;;;;9.70;9.40;;;13.60;99.90;;;;;;6287015;22;20195;-77
2023/09/06 02:16:12;;;;;;;10.13;9.83;;;13.50;99.90;;;;;;6286586;22;20293;-78
2023/09/06 02:18:39;;;;;;;10.10;9.80;;;13.50;99.90;;;;;;6287368;22;20224;-78
2023/09/06 02:21:06;;;;;;;10.20;9.90;;;13.50;99.90;;;;;;6287432;22;20281;-79
2023/09/06 02:23:34;;;;;;;10.27;9.97;;;13.40;99.90;;;;;;6286664;22;20189;-79
2023/09/06 02:26:03;;;;;;;10.10;9.80;;;13.40;99.90;;;;;;6287455;22;20204;-78
2023/09/06 02:28:29;;;;;;;10.10;9.80;;;13.40;99.90;;;;;;6287029;22;20269;-79
2023/09/06 02:30:57;;;;;;;10.00;9.70;;;13.30;99.90;;;;;;6287217;22;20282;-79
2023/09/06 02:33:32;;;;;;;9.80;9.50;;;13.30;99.90;;;;;;6286853;22;20194;-79
2023/09/06 02:35:59;;;;;;;10.00;9.70;;;13.30;99.90;;;;;;6287412;22;20233;-79
2023/09/06 02:38:27;;;;;;;9.87;9.57;;;13.30;99.90;;;;;;6286923;22;20189;-78
2023/09/06 02:40:55;;;;;;;9.90;9.60;;;13.20;99.90;;;;;;6286809;22;20232;-78
2023/09/06 02:43:23;;;;;;;9.47;9.17;;;13.20;99.90;;;;;;6286354;22;20197;-78
2023/09/06 02:45:54;;;;;;;9.80;9.50;;;13.20;99.90;;;;;;6287018;22;20201;-78
2023/09/06 02:48:24;;;;;;;9.50;9.20;;;13.20;99.90;;;;;;6287616;22;20192;-78
2023/09/06 02:50:58;;;;;;;9.47;9.17;;;13.10;99.90;;;;;;6286897;22;20200;-78
2023/09/06 02:53:26;;;;;;;9.40;9.10;;;13.10;99.90;;;;;;6286668;22;20185;-78
2023/09/06 02:55:53;;;;;;;9.30;9.00;;;13.10;99.90;;;;;;6286942;22;20540;-78
2023/09/06 02:58:23;;;;;;;9.50;9.20;;;13.00;99.90;;;;;;6286620;22;20241;-79
2023/09/06 03:00:55;;;;;;;9.60;9.30;;;13.00;99.90;;;;;;6286621;22;20209;-78
2023/09/06 03:03:22;;;;;;;9.70;9.40;;;13.00;99.90;;;;;;6286666;22;20209;-78
2023/09/06 03:05:53;;;;;;;9.50;9.20;;;13.00;99.90;;;;;;6287759;22;20194;-78
2023/09/06 03:08:25;;;;;;;9.50;9.20;;;13.00;99.90;;;;;;6288106;22;20189;-78
2023/09/06 03:10:56;;;;;;;9.60;9.30;;;13.00;99.90;;;;;;6295751;22;20204;-78
2023/09/06 03:13:24;;;;;;;9.20;8.90;;;13.00;99.90;;;;;;6298875;22;20186;-79
2023/09/06 03:15:51;;;;;;;9.30;9.00;;;12.90;99.90;;;;;;6288959;22;20193;-78
2023/09/06 03:18:18;;;;;;;9.50;9.20;;;12.90;99.90;;;;;;6290824;22;20192;-78
2023/09/06 03:20:46;;;;;;;9.10;8.80;;;12.90;99.90;;;;;;6297737;22;20198;-76
2023/09/06 03:23:19;;;;;;;9.47;9.17;;;12.90;99.90;;;;;;6287961;22;20285;-77
2023/09/06 03:25:49;;;;;;;9.63;9.33;;;12.90;99.90;;;;;;6287757;22;20232;-77
2023/09/06 03:28:18;;;;;;;9.60;9.30;;;12.90;99.90;;;;;;6292690;22;20189;-77
2023/09/06 03:30:45;;;;;;;9.50;9.20;;;12.90;99.90;;;;;;6287953;22;20197;-76
2023/09/06 03:33:12;;;;;;;9.50;9.20;;;12.90;99.90;;;;;;6287201;22;20193;-77
2023/09/06 03:35:41;;;;;;;9.40;9.10;;;12.80;99.90;;;;;;6286883;22;20288;-77
2023/09/06 03:38:09;;;;;;;9.67;9.37;;;12.80;99.90;;;;;;6286999;22;20224;-76
2023/09/06 03:40:36;;;;;;;9.60;9.30;;;12.80;99.90;;;;;;6287840;22;20194;-77
2023/09/06 03:43:09;;;;;;;9.80;9.50;;;12.70;99.90;;;;;;6287494;22;20201;-77
2023/09/06 03:45:36;;;;;;;9.50;9.20;;;12.60;99.90;;;;;;6287485;22;20281;-77
2023/09/06 03:48:05;;;;;;;9.70;9.40;;;12.60;99.90;;;;;;6287000;22;20193;-77
2023/09/06 03:50:32;;;;;;;9.67;9.37;;;12.60;99.90;;;;;;6287171;22;20212;-76
2023/09/06 03:52:59;;;;;;;9.90;9.60;;;12.50;99.90;;;;;;6285896;22;20248;-77
2023/09/06 03:55:26;;;;;;;9.53;9.23;;;12.50;99.90;;;;;;6286085;22;20201;-76
2023/09/06 03:57:53;;;;;;;9.70;9.40;;;12.50;99.90;;;;;;6286882;22;20731;-77
2023/09/06 04:00:26;;;;;;;9.40;9.10;;;12.40;99.90;;;;;;6286420;22;20220;-77
2023/09/06 04:02:55;;;;;;;9.70;9.40;;;12.40;99.90;;;;;;6286110;22;20186;-77
2023/09/06 04:05:26;;;;;;;9.13;8.83;;;12.30;99.90;;;;;;6286716;22;20200;-77
2023/09/06 04:07:56;;;;;;;9.10;8.80;;;12.30;99.90;;;;;;6287087;22;20239;-77
2023/09/06 04:10:25;;;;;;;9.20;8.90;;;12.40;99.90;;;;;;6286656;22;20197;-76
2023/09/06 04:12:53;;;;;;;9.70;9.40;;;12.30;99.90;;;;;;6286365;22;20244;-76
2023/09/06 04:15:24;;;;;;;9.50;9.20;;;12.30;99.90;;;;;;6288420;22;20209;-79
2023/09/06 04:17:57;;;;;;;10.10;9.80;;;12.20;99.90;;;;;;6287637;22;20205;-76
2023/09/06 04:20:27;;;;;;;9.90;9.60;;;12.20;99.90;;;;;;6287720;22;20201;-77
2023/09/06 04:22:56;;;;;;;10.00;9.70;;;12.20;99.90;;;;;;6287755;22;20197;-76
2023/09/06 04:25:23;;;;;;;10.07;9.77;;;12.20;99.90;;;;;;6287678;22;20213;-76
2023/09/06 04:27:54;;;;;;;10.00;9.70;;;12.20;99.90;;;;;;6288023;22;20205;-76
2023/09/06 04:30:24;;;;;;;10.07;9.77;;;12.10;99.90;;;;;;6291893;22;20244;-76
2023/09/06 04:32:53;;;;;;;9.80;9.50;;;12.10;99.90;;;;;;6289176;22;20190;-76
2023/09/06 04:35:22;;;;;;;9.90;9.60;;;12.10;99.90;;;;;;6291269;22;20720;-78
2023/09/06 04:37:49;;;;;;;10.10;9.80;;;12.10;99.90;;;;;;6290355;22;20193;-78
2023/09/06 04:40:19;;;;;;;9.90;9.60;;;12.10;99.90;;;;;;6288113;22;20205;-77
2023/09/06 04:42:46;;;;;;;9.80;9.50;;;12.00;99.90;;;;;;6288044;22;20192;-78
2023/09/06 04:45:13;;;;;;;9.70;9.40;;;12.10;99.90;;;;;;6287862;22;20721;-76
2023/09/06 04:47:43;;;;;;;9.50;9.20;;;12.00;99.90;;;;;;6287741;22;20204;-77
2023/09/06 04:50:12;;;;;;;9.10;8.80;;;12.00;99.90;;;;;;6288088;22;20192;-77
2023/09/06 04:52:45;;;;;;;9.40;9.10;;;12.00;99.90;;;;;;6287457;22;20201;-76
2023/09/06 04:55:13;;;;;;;9.70;9.40;;;11.90;99.90;;;;;;6288257;22;20229;-77
2023/09/06 04:57:41;;;;;;;9.37;9.07;;;11.90;99.90;;;;;;6287750;22;20196;-76
2023/09/06 05:00:16;;;;;;;9.53;9.23;;;11.90;99.90;;;;;;6287634;22;20211;-76
2023/09/06 05:02:46;;;;;;;9.80;9.50;;;11.90;99.90;;;;;;6287388;22;20193;-77
2023/09/06 05:05:14;;;;;;;10.00;9.70;;;11.80;99.90;;;;;;6288383;22;20253;-77
2023/09/06 05:07:41;;;;;;;10.20;9.90;;;11.90;99.90;;;;;;6290096;22;20201;-77
2023/09/06 05:10:10;;;;;;;10.10;9.80;;;11.90;99.90;;;;;;6288613;22;20206;-77
2023/09/06 05:12:37;;;;;;;10.00;9.70;;;11.90;99.90;;;;;;6287254;22;20197;-76
2023/09/06 05:15:06;;;;;;;9.83;9.53;;;11.90;99.90;;;;;;6287581;22;20215;-76
2023/09/06 05:17:33;;;;;;;10.00;9.70;;;11.90;99.90;;;;;;6287485;22;20280;-76
2023/09/06 05:20:27;;;;;;;9.70;9.40;;;12.00;99.90;;;;;;6286887;22;20277;-77
2023/09/06 05:22:55;;;;;;;9.87;9.57;;;12.00;99.90;;;;;;6287315;22;20189;-77
2023/09/06 05:25:22;;;;;;;9.90;9.60;;;12.00;99.90;;;;;;6286938;22;20289;-77
2023/09/06 05:27:50;;;;;;;9.43;9.13;;;12.10;99.90;;;;;;6287530;22;20276;-78
2023/09/06 05:30:19;;;;;;;9.40;9.10;;;12.10;99.90;;;;;;6288349;22;20280;-78
2023/09/06 05:32:48;;;;;;;9.60;9.30;;;12.20;99.90;;;;;;6288320;22;20288;-78
2023/09/06 05:35:16;;;;;;;9.03;8.80;;;12.20;99.90;;;;;;6288223;22;20212;-77
2023/09/06 05:37:49;;;;;;;9.50;9.20;;;12.30;99.90;;;;;;6288134;22;20274;-78
2023/09/06 05:40:22;;;;;;;9.10;8.80;;;12.30;99.90;;;;;;6288604;22;20216;-77
2023/09/06 05:42:49;;;;;;;9.27;8.97;;;12.40;99.90;;;;;;6288281;22;20217;-77
2023/09/06 05:45:16;;;;;;;9.30;9.00;;;12.50;99.90;;;;;;6287992;22;20205;-78
2023/09/06 05:47:45;;;;;;;9.20;8.90;;;12.50;99.90;;;;;;6287563;22;20618;-78
2023/09/06 05:50:13;;;;;;;9.23;8.93;;;12.60;99.90;;;;;;6287866;22;20264;-78
2023/09/06 05:52:44;;;;;;;9.30;9.00;;;12.70;99.90;;;;;;6287576;22;20205;-78
2023/09/06 05:55:12;;;;;;;9.00;8.70;;;12.80;99.90;;;;;;6287924;22;20256;-78
2023/09/06 05:57:43;;;;;;;9.17;8.87;;;12.90;99.90;;;;;;6287589;22;20284;-78
2023/09/06 06:00:15;;;;;;;8.70;8.50;;;13.10;99.90;;;;;;6287561;22;20198;-78
2023/09/06 06:02:42;;;;;;;9.10;8.80;;;13.10;99.90;;;;;;6287550;22;20200;-78
2023/09/06 06:05:12;;;;;;;8.90;8.70;;;13.20;99.90;;;;;;6287363;22;20261;-78
2023/09/06 06:07:41;;;;;;;9.40;9.10;;;13.30;99.90;;;;;;6287902;22;20248;-78
2023/09/06 06:10:11;;;;;;;9.20;8.90;;;13.50;99.90;;;;;;6288572;22;20197;-78
2023/09/06 06:12:43;;;;;;;9.70;9.40;;;13.60;99.90;;;;;;6287013;22;20401;-78
2023/09/06 06:15:13;;;;;;;9.47;9.17;;;13.70;99.90;;;;;;6289074;22;20189;-78
2023/09/06 06:17:40;;;;;;;9.40;9.10;;;13.80;99.90;;;;;;6289318;22;20197;-78
2023/09/06 06:20:10;;;;;;;9.73;9.43;;;14.00;99.90;;;;;;6287453;22;20281;-79
2023/09/06 06:22:39;;;;;;;9.90;9.60;;;14.10;99.90;;;;;;6287419;22;20190;-79
2023/09/06 06:25:08;;;;;;;10.00;9.70;;;14.20;99.90;;;;;;6286767;22;20489;-80
2023/09/06 06:27:35;;;;;;;10.23;9.93;;;14.30;99.90;;;;;;6287208;22;20292;-79
2023/09/06 06:30:05;;;;;;;10.10;9.80;;;14.50;99.90;;;;;;6286734;22;20190;-78
2023/09/06 06:32:32;;;;;;;9.95;9.65;;;14.60;99.90;;;;;;6288375;22;20251;-78
2023/09/06 06:35:01;;;;;;;10.00;9.70;;;14.70;99.90;;;;;;6288171;22;20205;-80
2023/09/06 06:37:29;;;;;;;9.88;9.57;;;14.80;99.90;;;;;;6286842;22;20198;-79
2023/09/06 06:39:58;;;;;;;10.13;9.82;;;15.00;99.90;;;;;;6287972;22;20268;-80
2023/09/06 06:42:26;;;;;;;9.90;9.60;;;15.10;99.90;;;;;;6286411;22;20216;-79
2023/09/06 06:44:54;;;;;;;10.27;9.98;;;15.20;99.90;;;;;;6286955;22;20229;-81
2023/09/06 06:47:22;;;;;;;10.10;9.80;;;15.40;99.90;;;;;;6286247;22;20194;-78
2023/09/06 06:49:51;;;;;;;10.40;10.10;;;15.50;99.90;;;;;;6286910;22;20215;-79
2023/09/06 06:52:18;;;;;;;10.50;10.20;;;15.60;99.90;;;;;;6287495;22;20229;-78
2023/09/06 06:54:45;;;;;;;10.55;10.25;;;15.70;99.90;;;;;;6293030;22;20201;-79
2023/09/06 06:57:13;;;;;;;10.60;10.30;;;15.90;99.90;;;;;;6287721;22;20213;-77
2023/09/06 06:59:40;;;;;;;10.73;10.43;;;16.00;99.90;;;;;;6287680;22;20193;-78
2023/09/06 07:02:09;;;;;;;10.43;10.13;;;16.10;99.90;;;;;;6287092;22;20202;-79
2023/09/06 07:04:39;;;;;;;10.70;10.40;;;16.20;99.90;;;;;;6287594;22;20212;-78
2023/09/06 07:07:06;;;;;;;10.50;10.20;;;16.40;99.90;;;;;;6287538;22;20216;-77
2023/09/06 07:09:34;;;;;;;9.90;9.60;;;16.60;99.90;;;;;;6287529;22;20253;-77
2023/09/06 07:12:00;;;;;;;9.95;9.65;;;16.80;99.90;;;;;;6287681;22;20198;-78
2023/09/06 07:14:29;;;;;;;10.05;9.75;;;16.90;99.90;;;;;;6287333;22;20194;-79
2023/09/06 07:16:58;;;;;;;9.90;9.60;;;17.00;99.90;;;;;;6287275;22;20301;-78
2023/09/06 07:19:26;;;;;;;9.85;9.55;;;17.20;99.90;;;;;;6288083;22;20197;-78
2023/09/06 07:22:00;;;;;;;10.07;9.77;;;17.40;99.90;;;;;;6288136;22;20198;-79
2023/09/06 07:24:27;;;;;;;10.70;10.40;;;17.60;99.90;;;;;;6290889;22;20209;-84
2023/09/06 07:26:56;;;;;;;10.70;10.40;;;17.70;99.90;;;;;;6292507;22;20329;-81
2023/09/06 07:29:27;;;;;;;10.60;10.30;;;17.90;99.90;;;;;;6292677;22;20254;-80
2023/09/06 07:31:55;;;;;;;10.70;10.40;;;18.00;99.90;;;;;;6292606;22;20240;-81
2023/09/06 07:34:25;;;;;;;10.75;10.45;;;18.20;99.90;;;;;;6294116;22;20252;-81
2023/09/06 07:36:56;;;;;;;10.73;10.43;;;18.40;99.90;;;;;;6293707;22;20257;-81
2023/09/06 07:39:24;;;;;;;10.90;10.60;;;18.50;99.90;;;;;;6293068;22;20225;-81
2023/09/06 07:41:55;;;;;;;10.70;10.40;;;18.80;99.90;;;;;;6292318;22;20197;-82
2023/09/06 07:44:23;;;;;;;10.65;10.35;;;18.90;99.90;;;;;;6293746;22;20186;-83
2023/09/06 07:46:52;;;;;;;10.48;10.18;;;19.00;99.90;;;;;;6304426;22;20284;-82
2023/09/06 07:49:21;;;;;;;10.60;10.30;;;19.20;99.90;;;;;;6294249;22;20193;-81
2023/09/06 07:54:50;;;;;;;10.50;10.20;;;19.40;99.90;;;;;;5148595;27;20563;-85
2023/09/06 07:57:17;;;;;;;10.60;10.30;;;19.60;99.90;;;;;;5121151;27;20296;-82
2023/09/06 07:59:46;;;;;;;10.50;10.20;;;19.70;99.90;;;;;;5122050;27;20235;-83
2023/09/06 08:02:25;;;;;;;10.43;10.13;;;19.80;99.90;;;;;;5127164;27;20280;-84
2023/09/06 08:04:53;;;;;;;10.57;10.27;;;19.80;99.90;;;;;;5136455;27;20289;-86
2023/09/06 08:07:22;;;;;;;10.50;10.20;;;19.90;99.90;;;;;;5136951;27;20232;-82
2023/09/06 08:09:53;;;;;;;10.68;10.38;;;20.10;99.90;;;;;;5119794;27;20233;-83
2023/09/06 08:12:22;;;;;;;10.50;10.20;;;20.20;99.90;;;;;;5119862;27;20235;-84
2023/09/06 08:14:50;;;;;;;10.75;10.45;;;20.20;99.90;;;;;;5121761;27;20236;-83
2023/09/06 08:17:30;;;;;;;10.50;10.20;;;20.40;99.90;;;;;;5120443;27;20327;-79
2023/09/06 08:19:59;;;;;;;10.55;10.25;;;20.40;99.90;;;;;;5118396;27;20235;-81
2023/09/06 08:22:27;;;;;;;11.10;10.80;;;20.60;99.90;;;;;;5120015;27;20224;-80
2023/09/06 08:24:59;;;;;;;10.90;10.60;;;20.70;99.90;;;;;;5121403;27;20259;-80
2023/09/06 08:27:26;;;;;;;11.30;11.00;;;20.90;99.90;;;;;;5122045;27;20223;-80
2023/09/06 08:29:54;;;;;;;10.98;10.68;;;21.10;99.90;;;;;;5119302;27;20302;-79
2023/09/06 08:32:21;;;;;;;10.73;10.43;;;21.30;99.90;;;;;;5120930;27;20256;-81
2023/09/06 08:34:49;;;;;;;11.00;10.70;;;21.50;99.90;;;;;;5124654;27;20267;-80
2023/09/06 08:37:16;;;;;;;11.00;10.70;;;21.70;99.90;;;;;;5123988;27;20316;-81
2023/09/06 08:39:43;;;;;;;11.10;10.80;;;21.90;99.90;;;;;;5126086;27;20231;-81
2023/09/06 08:42:12;;;;;;;11.10;10.80;;;22.00;99.90;;;;;;5118954;27;20233;-80
2023/09/06 08:44:53;;;;;;;10.77;10.48;;;22.20;99.90;;;;;;5120603;27;20251;-82
2023/09/06 08:47:32;;;;;;;10.60;10.30;;;22.30;99.90;;;;;;5123728;28;20248;-82
2023/09/06 08:50:01;;;;;;;10.68;10.38;;;22.60;99.90;;;;;;5123024;27;20233;-79
2023/09/06 08:52:31;;;;;;;11.00;10.70;;;22.80;99.90;;;;;;5120284;27;20226;-82
2023/09/06 08:54:59;;;;;;;11.05;10.75;;;23.10;99.90;;;;;;5123128;27;20287;-82
2023/09/06 09:00:16;;;;;;;11.05;10.75;;;23.90;99.90;;;;;;5107354;28;20225;-83
2023/09/06 09:02:46;;;;;;;11.45;11.05;;;24.30;99.90;;;;;;5117896;27;20233;-85
2023/09/06 09:05:15;;;;;;;11.30;11.00;;;24.70;99.90;;;;;;5108457;27;20249;-83
2023/09/06 09:07:47;;;;;;;11.55;11.15;;;25.10;99.90;;;;;;5107397;28;20229;-84
2023/09/06 09:10:14;;;;;;;11.38;11.07;;;25.00;99.90;;;;;;5106989;27;20236;-83
2023/09/06 09:12:47;;;;;;;10.85;10.55;;;24.90;99.90;;;;;;5107463;28;20229;-84
2023/09/06 09:15:14;;;;;;;10.90;10.60;;;24.80;99.90;;;;;;5108416;27;20237;-83
2023/09/06 09:17:53;;;;;;;11.20;10.90;;;25.00;99.90;;;;;;5107934;28;20259;-83
2023/09/06 09:20:22;;;;;;;10.70;10.40;;;25.10;99.90;;;;;;5108059;27;20229;-84
2023/09/06 09:22:52;;;;;;;10.70;10.40;;;25.50;99.90;;;;;;5107062;27;20229;-83
2023/09/06 09:25:31;;;;;;;10.55;10.25;;;25.80;99.90;;;;;;5109979;27;20326;-84
2023/09/06 09:28:02;;;;;;;10.32;10.02;;;26.00;99.90;;;;;;5108970;27;20283;-84
2023/09/06 09:30:31;;;;;;;10.75;10.45;;;26.10;99.90;;;;;;5107591;27;20610;-85
2023/09/06 09:33:03;;;;;;;10.50;10.20;;;26.40;99.90;;;;;;5106368;28;20225;-84
2023/09/06 09:35:40;;;;;;;10.50;10.20;;;26.40;99.90;;;;;;5106942;27;20233;-84
2023/09/06 09:38:24;;;;;;;10.43;10.13;;;26.60;99.90;;;;;;5115691;28;20241;-84
2023/09/06 09:41:13;;;;;;;10.65;10.35;;;26.90;99.90;;;;;;5114408;27;20236;-85
2023/09/06 09:43:42;;;;;;;10.75;10.45;;;27.00;99.90;;;;;;5114118;27;20241;-86
2023/09/06 09:46:10;;;;;;;10.82;10.52;;;27.30;99.90;;;;;;5113280;27;20253;-82
2023/09/06 09:48:39;;;;;;;10.77;10.48;;;27.40;99.90;;;;;;5115277;28;20226;-84
2023/09/06 09:51:10;;;;;;;10.60;10.30;;;27.40;99.90;;;;;;5112795;27;20232;-84
2023/09/06 09:53:40;;;;;;;10.70;10.40;;;27.40;99.90;;;;;;5110291;28;20233;-85
2023/09/06 09:56:08;;;;;;;10.80;10.50;;;27.60;99.90;;;;;;5112907;27;20228;-84
2023/09/06 09:58:43;;;;;;;10.88;10.57;;;27.60;99.90;;;;;;5111258;28;20233;-84
2023/09/06 10:01:18;;;;;;;10.77;10.48;;;27.90;99.90;;;;;;5112449;27;20224;-85
2023/09/06 10:03:50;;;;;;;11.00;10.70;;;28.20;99.90;;;;;;5112165;28;20221;-84
2023/09/06 10:06:19;;;;;;;10.75;10.45;;;28.20;99.90;;;;;;5111316;27;20237;-82
2023/09/06 10:08:49;;;;;;;10.98;10.68;;;28.20;99.90;;;;;;5113265;27;20221;-83
2023/09/06 10:11:21;;;;;;;11.10;10.80;;;28.20;99.90;;;;;;5113174;27;20241;-84
2023/09/06 10:13:50;;;;;;;11.07;10.77;;;28.30;99.90;;;;;;5112846;28;20217;-81
2023/09/06 10:16:30;;;;;;;10.90;10.60;;;28.40;99.90;;;;;;5111277;27;20276;-84
2023/09/06 10:19:03;;;;;;;10.80;10.50;;;28.70;99.90;;;;;;5113135;27;20243;-83
2023/09/06 10:21:32;;;;;;;11.10;10.80;;;28.70;99.90;;;;;;5109244;28;20222;-81
2023/09/06 10:24:00;;;;;;;11.20;10.90;;;28.90;99.90;;;;;;5105109;28;20238;-84
2023/09/06 10:26:34;;;;;;;11.00;10.70;;;29.10;99.90;;;;;;5109612;28;20229;-81
2023/09/06 10:29:05;;;;;;;10.90;10.60;;;29.50;99.90;;;;;;5102464;27;20233;-82
2023/09/06 10:31:39;;;;;;;10.95;10.65;;;29.10;99.90;;;;;;5097078;28;20236;-82
2023/09/06 10:34:07;;;;;;;11.43;11.02;;;29.20;99.90;;;;;;5110289;27;20276;-82
2023/09/06 10:36:52;;;;;;;10.93;10.63;;;29.50;99.90;;;;;;5113165;27;20545;-82
2023/09/06 10:39:25;;;;;;;11.38;10.98;;;29.60;99.90;;;;;;5113270;27;20255;-82
2023/09/06 10:42:41;;;;;;;11.60;11.20;;;29.80;99.90;;;;;;5112632;27;20235;-83
2023/09/06 10:45:12;;;;;;;10.90;10.60;;;29.90;99.90;;;;;;5110246;28;20222;-82
2023/09/06 10:47:42;;;;;;;11.10;10.80;;;30.10;99.90;;;;;;5111263;27;20379;-82
2023/09/06 10:50:21;;;;;;;11.00;10.70;;;30.30;99.90;;;;;;5111402;28;20286;-83
2023/09/06 10:52:53;;;;;;;11.55;11.15;;;30.40;99.90;;;;;;5111631;27;20217;-81
2023/09/06 10:55:23;;;;;;;11.07;10.77;;;30.50;99.90;;;;;;5108983;28;20214;-81
2023/09/06 10:58:06;;;;;;;11.55;11.15;;;30.60;99.90;;;;;;5105599;28;20226;-81
2023/09/06 11:00:37;;;;;;;11.57;11.18;;;30.50;99.90;;;;;;5107621;27;20283;-80
2023/09/06 11:03:21;;;;;;;11.55;11.23;;;30.80;99.90;;;;;;5107188;28;20230;-80
2023/09/06 11:05:56;;;;;;;11.52;11.15;;;30.90;99.90;;;;;;5104046;28;20210;-78
2023/09/06 11:08:32;;;;;;;11.57;11.18;;;31.30;99.90;;;;;;5099325;28;20275;-78
2023/09/06 11:11:08;;;;;;;11.48;11.10;;;31.40;99.90;;;;;;5098911;28;20235;-79
2023/09/06 11:13:37;;;;;;;11.30;11.00;;;31.50;99.90;;;;;;5098080;28;20269;-78
2023/09/06 11:16:06;;;;;;;11.25;10.95;;;31.70;99.90;;;;;;5099346;28;20316;-80
2023/09/06 11:18:52;;;;;;;11.20;10.90;;;31.90;99.90;;;;;;5083955;28;20232;-80
2023/09/06 11:21:20;;;;;;;11.50;11.10;;;32.00;99.90;;;;;;5101327;28;20274;-79
2023/09/06 11:23:49;;;;;;;11.10;10.80;;;32.20;99.90;;;;;;5102551;27;20241;-81
2023/09/06 11:26:17;;;;;;;10.88;10.57;;;32.20;99.90;;;;;;5099280;28;20218;-82
2023/09/06 11:28:47;;;;;;;10.60;10.30;;;32.40;99.90;;;;;;5102999;22;20298;-88
2023/09/06 11:34:30;;;;;;;;;;;;;;;;;;;;;
2023/09/06 11:37:03;;;;;;;10.85;10.55;;;32.20;99.90;;;;;;5063233;28;20223;-84
2023/09/06 11:42:15;;;;;;;10.90;10.60;;;33.00;99.90;;;;;;5068755;28;20229;-86
2023/09/06 11:44:47;;;;;;;11.00;10.70;;;33.20;99.90;;;;;;5074312;28;20445;-84
2023/09/06 11:47:32;;;;;;;10.90;10.60;;;33.20;99.90;;;;;;5067687;28;20231;-83
2023/09/06 11:50:12;;;;;;;11.15;10.85;;;33.60;99.90;;;;;;5190019;22;20237;-86
2023/09/06 11:52:48;;;;;;;11.10;10.80;;;33.90;99.90;;;;;;5068782;28;20246;-87
2023/09/06 11:55:19;;;;;;;11.20;10.90;;;34.10;99.90;;;;;;5078124;28;20215;-88
2023/09/06 11:57:52;;;;;;;11.10;10.80;;;34.10;99.90;;;;;;5059620;28;20220;-87
2023/09/06 12:08:47;;;;;;;10.88;10.57;;;34.50;99.90;;;;;;5043321;28;20228;-88
2023/09/06 12:14:11;;;;;;;10.80;10.50;;;34.80;99.90;;;;;;5042197;28;20246;-87
2023/09/06 12:16:41;;;;;;;10.75;10.45;;;35.00;99.90;;;;;;5047030;28;20253;-88
2023/09/06 12:19:19;;;;;;;10.90;10.60;;;34.90;99.90;;;;;;5048076;28;20240;-87
2023/09/06 12:21:51;;;;;;;10.88;10.57;;;34.90;99.90;;;;;;5044372;28;20229;-89
2023/09/06 12:24:19;;;;;;;10.70;10.40;;;35.00;99.90;;;;;;5043443;28;20279;-88
2023/09/06 12:26:47;;;;;;;10.90;10.60;;;35.20;99.90;;;;;;5052847;28;20267;-88
2023/09/06 12:29:16;;;;;;;10.80;10.50;;;35.30;99.90;;;;;;5045412;28;20278;-88
2023/09/06 12:31:46;;;;;;;10.75;10.45;;;35.40;99.90;;;;;;5045651;28;20232;-88
2023/09/06 12:34:16;;;;;;;11.50;11.20;;;35.50;99.90;;;;;;5042808;28;20416;-85
2023/09/06 12:36:43;;;;;;;10.80;10.50;;;35.30;99.90;;;;;;5040337;28;20224;-87
2023/09/06 12:39:18;;;;;;;10.95;10.65;;;34.80;99.90;;;;;;5044742;28;20235;-86
2023/09/06 12:44:30;;;;;;;10.93;10.63;;;35.00;99.90;;;;;;5060231;28;20240;-84
2023/09/06 12:46:59;;;;;;;10.75;10.45;;;35.00;99.90;;;;;;5061565;28;20270;-84
2023/09/06 12:49:30;;;;;;;10.85;10.55;;;35.30;99.90;;;;;;5056843;28;20228;-85
2023/09/06 12:51:58;;;;;;;10.85;10.55;;;35.20;99.90;;;;;;5048108;28;20242;-87
2023/09/06 12:57:23;;;;;;;10.88;10.57;;;35.50;99.90;;;;;;5040910;28;20223;-85
2023/09/06 12:59:56;;;;;;;11.15;10.85;;;35.90;99.90;;;;;;5046733;28;20287;-86
2023/09/06 13:02:25;;;;;;;10.85;10.55;;;35.90;99.90;;;;;;5046234;28;20231;-86
2023/09/06 13:04:53;;;;;;;11.00;10.70;;;36.00;99.90;;;;;;5045821;28;20239;-85
2023/09/06 13:07:24;;;;;;;10.73;10.43;;;36.50;99.90;;;;;;5045086;28;20223;-86
2023/09/06 13:09:54;;;;;;;10.65;10.35;;;36.50;99.90;;;;;;5044938;28;20247;-84
2023/09/06 13:12:39;;;;;;;10.43;10.13;;;36.50;99.90;;;;;;5045827;28;20455;-85
2023/09/06 13:17:58;;;;;;;10.80;10.50;;;36.70;99.90;;;;;;5045271;28;20259;-85
2023/09/06 13:20:34;;;;;;;10.55;10.25;;;36.90;99.90;;;;;;5045507;28;20228;-87
2023/09/06 13:28:48;;;;;;;10.50;10.20;;;36.30;99.90;;;;;;5045314;28;20326;-85